To NAV CANADA Home Page Login to a new session Search on AWWS site Feedback and Comments Disclaimer Vers la page française équivalente Tips FAQ What's new on the site To the Forecasts and Observations / NOTAM section To "File a Flight Plan" website Publications and other links Update of the User's profile FIC Telephone Numbers My Weather Data Folder Route Weather Data Regional Weather Data Local Weather Data To the Forecasts and Observations / NOTAM section
Request Generated 02/23/2017 at 20:46:09 UTC . Weather information available at that time is displayed.

METAR/TAF

ISLAND LAKE/MB    

METAR CYIV 232000Z 32009KT 15SM FEW010 M15/M20 A3011 RMK SC2 SLP223=
METAR CYIV 231900Z 33012KT 15SM SCT010 M16/M20 A3010 RMK SC4 SLP222=
SPECI CYIV 231810Z 33010KT 15SM BKN010 M16/M21 A3010 RMK SC6 SLP221=
METAR CYIV 231800Z 33010KT 280V350 15SM -SN BKN010 M17/M21 A3010 RMK
SC6 SLP221=

TAF CYIV 231843Z 2319/2407 33008KT P6SM SCT010 BKN025 TEMPO 2319/2323
4SM -SN OVC010
FM232300 01003KT P6SM SCT030 TEMPO 2323/2407 BKN030
RMK NXT FCST BY 240100Z=
Your time UTC time
Weather data provided by Environment Canada and NAV CANADA